Jinjya Maru — JI3550 — position and weather

sailwx.info

Track history (hours):
 
Tides and Currents Weather Stations Pressure Air Temp Water Temp Dewpoint Dewpoint Depression Visibility Wind Speed Wind Dir Waves Ship Positions

Jinjya Maru

Last reported at 2017-Sep-15 03:21 UTC. Time now 2017-Sep-23 07:13 UTC.
Position N 34°36' E 135°04'.
Warning: this ship's position is 8 days out of date.

Length 48 m.

Type: Tanker. MMSI: 431300336.

Date/timePositionNaut miles runAvg speedWind from/ knotsBaromVisibWave heightAir tempDewpointWater temp
2017-Sep-15 03:21N 34°36' E 135°04'3 7.4
2017-Sep-15 02:56N 34°35' E 135°07'4 8.4
2017-Sep-15 02:30N 34°35' E 135°12'10 1.1
2017-Sep-14 16:40N 34°32' E 135°24'2 9.6
2017-Sep-14 16:29N 34°33' E 135°22'6 9.2
2017-Sep-14 15:53N 34°34' E 135°15'3 8.9
2017-Sep-14 15:30N 34°35' E 135°11'510.0
2017-Sep-14 14:59N 34°36' E 135°05'  
2017-Sep-11 05:12N 34°31' E 135°17'4 9.0
2017-Sep-11 04:42N 34°34' E 135°21'4 0.2
2017-Sep-10 12:37N 34°31' E 135°24'0 0.0
2017-Sep-10 12:07N 34°31' E 135°24'0 0.0
2017-Sep-10 11:49N 34°31' E 135°24'0 0.0
2017-Sep-10 11:19N 34°31' E 135°24'0 0.0
2017-Sep-10 10:55N 34°31' E 135°24'0 0.0
2017-Sep-10 10:13N 34°31' E 135°24'0 0.0
2017-Sep-10 09:49N 34°31' E 135°24'0 0.0
2017-Sep-10 09:25N 34°31' E 135°24'1 0.3
2017-Sep-10 05:31N 34°32' E 135°24'2 9.9
2017-Sep-10 05:16N 34°32' E 135°21'310.5
2017-Sep-10 04:57N 34°33' E 135°17'510.7
2017-Sep-10 04:28N 34°34' E 135°11'6 0.1
2017-Sep-08 03:04N 34°36' E 135°04'1 9.2
2017-Sep-08 03:00N 34°36' E 135°05'5 9.6
2017-Sep-08 02:27N 34°35' E 135°11'4 9.5
2017-Sep-08 01:59N 34°35' E 135°16'8 0.6
2017-Sep-07 13:59N 34°33' E 135°25'0 0.0
2017-Sep-07 13:29N 34°33' E 135°25'0 0.0
2017-Sep-07 12:59N 34°33' E 135°25'0 0.1
2017-Sep-07 11:48N 34°33' E 135°25'2 7.6
2017-Sep-07 11:30N 34°33' E 135°22'510.0
2017-Sep-07 11:00N 34°34' E 135°16'611.1
2017-Sep-07 10:27N 34°35' E 135°09'4 0.1
2017-Sep-06 02:19N 34°37' E 135°05'3 8.5
2017-Sep-06 02:00N 34°37' E 135°08'5 9.8
2017-Sep-06 01:30N 34°36' E 135°14'10 0.9
2017-Sep-05 14:42N 34°31' E 135°24'  
Track history (hours):
 
Tides and Currents Weather Stations Pressure Air Temp Water Temp Dewpoint Dewpoint Depression Visibility Wind Speed Wind Dir Waves Ship Positions

Jinjya Maru

Last reported at 2017-Sep-15 03:21 UTC. Time now 2017-Sep-23 07:13 UTC.
Position N 34°36' E 135°04'.
Warning: this ship's position is 8 days out of date.

Length 48 m.

Type: Tanker. MMSI: 431300336.

Date/timePositionNaut miles runAvg speedWind from/ knotsBaromVisibWave heightAir tempDewpointWater temp
2017-Sep-15 03:21N 34°36' E 135°04'3 7.4
2017-Sep-15 02:56N 34°35' E 135°07'4 8.4
2017-Sep-15 02:30N 34°35' E 135°12'10 1.1
2017-Sep-14 16:40N 34°32' E 135°24'2 9.6
2017-Sep-14 16:29N 34°33' E 135°22'6 9.2
2017-Sep-14 15:53N 34°34' E 135°15'3 8.9
2017-Sep-14 15:30N 34°35' E 135°11'510.0
2017-Sep-14 14:59N 34°36' E 135°05'  
2017-Sep-11 05:12N 34°31' E 135°17'4 9.0
2017-Sep-11 04:42N 34°34' E 135°21'4 0.2
2017-Sep-10 12:37N 34°31' E 135°24'0 0.0
2017-Sep-10 12:07N 34°31' E 135°24'0 0.0
2017-Sep-10 11:49N 34°31' E 135°24'0 0.0
2017-Sep-10 11:19N 34°31' E 135°24'0 0.0
2017-Sep-10 10:55N 34°31' E 135°24'0 0.0
2017-Sep-10 10:13N 34°31' E 135°24'0 0.0
2017-Sep-10 09:49N 34°31' E 135°24'0 0.0
2017-Sep-10 09:25N 34°31' E 135°24'1 0.3
2017-Sep-10 05:31N 34°32' E 135°24'2 9.9
2017-Sep-10 05:16N 34°32' E 135°21'310.5
2017-Sep-10 04:57N 34°33' E 135°17'510.7
2017-Sep-10 04:28N 34°34' E 135°11'6 0.1
2017-Sep-08 03:04N 34°36' E 135°04'1 9.2
2017-Sep-08 03:00N 34°36' E 135°05'5 9.6
2017-Sep-08 02:27N 34°35' E 135°11'4 9.5
2017-Sep-08 01:59N 34°35' E 135°16'8 0.6
2017-Sep-07 13:59N 34°33' E 135°25'0 0.0
2017-Sep-07 13:29N 34°33' E 135°25'0 0.0
2017-Sep-07 12:59N 34°33' E 135°25'0 0.1
2017-Sep-07 11:48N 34°33' E 135°25'2 7.6
2017-Sep-07 11:30N 34°33' E 135°22'510.0
2017-Sep-07 11:00N 34°34' E 135°16'611.1
2017-Sep-07 10:27N 34°35' E 135°09'4 0.1
2017-Sep-06 02:19N 34°37' E 135°05'3 8.5
2017-Sep-06 02:00N 34°37' E 135°08'5 9.8
2017-Sep-06 01:30N 34°36' E 135°14'10 0.9
2017-Sep-05 14:42N 34°31' E 135°24'  

Dump ship's entire track history